Time;durP1;ratioP1;P1;durP2;ratioP2;P2;SDS_P1;SDS_P2;PMS_P1;PMS_P2;Temp;Humidity;BMP_temperature;BMP_pressure;BME280_temperature;BME280_humidity;BME280_pressure;Samples;Min_cycle;Max_cycle;Signal;HPM_P1;HPM_P2
2021/06/20 00:00:17;;;;;;;;;;;28.00;58.60;;;;;;5027900;28;19924;-67
2021/06/20 00:02:43;;;;;;;;;;;28.00;58.60;;;;;;5025261;28;19917;-66
2021/06/20 00:05:09;;;;;;;;;;;28.00;58.50;;;;;;5039450;28;19916;-66
2021/06/20 00:07:35;;;;;;;;;;;28.00;58.70;;;;;;5033097;28;19913;-67
2021/06/20 00:10:02;;;;;;;;;;;28.00;58.60;;;;;;5040266;28;20714;-66
2021/06/20 00:12:27;;;;;;;;;;;28.00;58.60;;;;;;5038497;28;20292;-66
2021/06/20 00:14:53;;;;;;;;;;;27.90;58.50;;;;;;5038137;28;21346;-66
2021/06/20 00:17:18;;;;;;;;;;;28.00;58.50;;;;;;5034161;28;19921;-69
2021/06/20 00:19:43;;;;;;;;;;;27.90;58.80;;;;;;5028322;28;19929;-68
2021/06/20 00:22:09;;;;;;;;;;;27.90;58.70;;;;;;5026294;28;20347;-69
2021/06/20 00:24:34;;;;;;;;;;;27.90;58.70;;;;;;5027165;28;19917;-68
2021/06/20 00:27:00;;;;;;;;;;;27.90;58.60;;;;;;5032485;28;19921;-68
2021/06/20 00:29:25;;;;;;;;;;;27.90;58.60;;;;;;5029381;28;19924;-69
2021/06/20 00:31:51;;;;;;;;;;;27.80;58.60;;;;;;5024536;28;20338;-69
2021/06/20 00:34:16;;;;;;;;;;;27.60;58.60;;;;;;5033660;28;19918;-68
2021/06/20 00:36:42;;;;;;;;;;;27.60;58.80;;;;;;5025591;28;19925;-68
2021/06/20 00:39:07;;;;;;;;;;;27.50;58.80;;;;;;5030908;28;20379;-68
2021/06/20 00:41:33;;;;;;;;;;;27.50;58.70;;;;;;5024974;28;19921;-69
2021/06/20 00:44:01;;;;;;;;;;;27.50;58.90;;;;;;5030204;28;19951;-68
2021/06/20 00:46:27;;;;;;;;;;;27.40;58.80;;;;;;5025569;28;19917;-68
2021/06/20 00:48:52;;;;;;;;;;;27.50;59.00;;;;;;5034965;28;20548;-68
2021/06/20 00:51:18;;;;;;;;;;;27.50;59.00;;;;;;5018488;28;19936;-68
2021/06/20 00:53:43;;;;;;;;;;;27.50;59.00;;;;;;5029965;28;19917;-69
2021/06/20 00:56:09;;;;;;;;;;;27.40;58.80;;;;;;5032217;28;19961;-68
2021/06/20 00:58:34;;;;;;;;;;;27.30;58.70;;;;;;5036387;28;19924;-68
2021/06/20 01:01:00;;;;;;;;;;;27.30;58.70;;;;;;5032982;28;19925;-68
2021/06/20 01:03:25;;;;;;;;;;;27.30;58.70;;;;;;5027640;28;19924;-68
2021/06/20 01:05:50;;;;;;;;;;;27.30;58.70;;;;;;5037610;28;19924;-69
2021/06/20 01:08:16;;;;;;;;;;;27.30;58.60;;;;;;5036181;28;19960;-68
2021/06/20 01:10:41;;;;;;;;;;;27.30;59.00;;;;;;5028506;28;20338;-69
2021/06/20 01:13:08;;;;;;;;;;;27.30;58.20;;;;;;5037021;28;19959;-69
2021/06/20 01:15:33;;;;;;;;;;;27.20;58.10;;;;;;5029286;28;19921;-69
2021/06/20 01:17:59;;;;;;;;;;;27.20;58.00;;;;;;5020843;28;20414;-68
2021/06/20 01:20:24;;;;;;;;;;;27.20;57.90;;;;;;5038152;28;20392;-68
2021/06/20 01:22:50;;;;;;;;;;;27.20;58.10;;;;;;5028391;28;19920;-69
2021/06/20 01:25:20;;;;;;;;;;;27.20;58.20;;;;;;5028496;28;19996;-68
2021/06/20 01:27:46;;;;;;;;;;;27.20;58.20;;;;;;5031965;28;20051;-68
2021/06/20 01:30:32;;;;;;;;;;;27.20;58.20;;;;;;5028217;28;20390;-69
2021/06/20 01:32:58;;;;;;;;;;;27.20;58.20;;;;;;5028395;28;20016;-68
2021/06/20 01:35:23;;;;;;;;;;;27.20;58.40;;;;;;5033680;28;19984;-68
2021/06/20 01:37:49;;;;;;;;;;;27.20;58.30;;;;;;5033110;28;19967;-68
2021/06/20 01:40:15;;;;;;;;;;;27.20;58.30;;;;;;5030678;28;20300;-68
2021/06/20 01:42:40;;;;;;;;;;;27.10;58.30;;;;;;5035902;28;19928;-68
2021/06/20 01:45:07;;;;;;;;;;;27.10;58.30;;;;;;5034203;28;20213;-68
2021/06/20 01:47:33;;;;;;;;;;;27.10;58.30;;;;;;5028174;28;19943;-68
2021/06/20 01:49:59;;;;;;;;;;;27.10;58.40;;;;;;5030104;28;19925;-68
2021/06/20 01:52:25;;;;;;;;;;;27.10;59.00;;;;;;5030402;28;19925;-68
2021/06/20 01:54:50;;;;;;;;;;;27.00;58.40;;;;;;5037706;28;20014;-68
2021/06/20 01:57:17;;;;;;;;;;;27.00;58.30;;;;;;5034177;28;20039;-67
2021/06/20 01:59:42;;;;;;;;;;;27.00;58.30;;;;;;5032988;28;19925;-68
2021/06/20 02:02:08;;;;;;;;;;;27.00;58.30;;;;;;5027601;28;20521;-68
2021/06/20 02:04:33;;;;;;;;;;;27.00;58.30;;;;;;5031679;28;19921;-67
2021/06/20 02:06:59;;;;;;;;;;;26.90;58.20;;;;;;5034547;28;19925;-68
2021/06/20 02:09:24;;;;;;;;;;;26.90;58.10;;;;;;5032232;28;20399;-68
2021/06/20 02:11:50;;;;;;;;;;;26.90;58.00;;;;;;5033368;28;19975;-67
2021/06/20 02:14:16;;;;;;;;;;;26.90;57.80;;;;;;5033428;28;19921;-68
2021/06/20 02:16:41;;;;;;;;;;;26.90;57.80;;;;;;5030332;28;19925;-68
2021/06/20 02:19:07;;;;;;;;;;;26.90;57.70;;;;;;5030838;28;19920;-68
2021/06/20 02:21:32;;;;;;;;;;;26.90;57.60;;;;;;5032559;28;19921;-68
2021/06/20 02:23:58;;;;;;;;;;;26.90;57.30;;;;;;5030461;28;20292;-68
2021/06/20 02:26:23;;;;;;;;;;;26.90;57.10;;;;;;5028505;28;19959;-67
2021/06/20 02:28:48;;;;;;;;;;;26.90;57.00;;;;;;5023780;28;19932;-68
2021/06/20 02:31:14;;;;;;;;;;;26.90;56.80;;;;;;5029448;28;19917;-68
2021/06/20 02:33:39;;;;;;;;;;;26.90;57.20;;;;;;5024408;28;19925;-68
2021/06/20 02:36:05;;;;;;;;;;;26.90;56.50;;;;;;5029667;28;19931;-67
2021/06/20 02:38:30;;;;;;;;;;;26.90;56.30;;;;;;5023866;28;20039;-68
2021/06/20 02:40:56;;;;;;;;;;;26.80;56.10;;;;;;5026644;28;19936;-68
2021/06/20 02:43:21;;;;;;;;;;;26.80;56.20;;;;;;5027356;28;19923;-68
2021/06/20 02:45:46;;;;;;;;;;;26.90;56.10;;;;;;5028610;28;20623;-68
2021/06/20 02:48:12;;;;;;;;;;;26.90;56.30;;;;;;5025609;28;19925;-68
2021/06/20 02:50:37;;;;;;;;;;;26.80;56.30;;;;;;5029829;28;19928;-68
2021/06/20 02:53:03;;;;;;;;;;;26.80;56.50;;;;;;5030080;28;19929;-67
2021/06/20 02:55:29;;;;;;;;;;;26.80;56.60;;;;;;5022859;28;19928;-67
2021/06/20 02:57:54;;;;;;;;;;;26.80;56.60;;;;;;5028613;28;19943;-68
2021/06/20 03:00:20;;;;;;;;;;;26.80;56.70;;;;;;5032671;28;19977;-67
2021/06/20 03:02:45;;;;;;;;;;;26.70;56.70;;;;;;5025752;28;19917;-67
2021/06/20 03:05:11;;;;;;;;;;;26.70;56.80;;;;;;5031205;28;19921;-67
2021/06/20 03:07:36;;;;;;;;;;;26.70;56.80;;;;;;5029532;28;19928;-68
2021/06/20 03:10:02;;;;;;;;;;;26.70;56.90;;;;;;5028434;28;19921;-67
2021/06/20 03:12:28;;;;;;;;;;;26.70;56.90;;;;;;5023878;28;19928;-68
2021/06/20 03:14:53;;;;;;;;;;;26.70;56.90;;;;;;5029205;28;19921;-68
2021/06/20 03:17:18;;;;;;;;;;;26.70;56.90;;;;;;5006578;28;19921;-68
2021/06/20 03:19:44;;;;;;;;;;;26.70;57.20;;;;;;5026048;28;19940;-68
2021/06/20 03:22:10;;;;;;;;;;;26.60;57.20;;;;;;5029465;28;19956;-69
2021/06/20 03:24:36;;;;;;;;;;;26.60;57.10;;;;;;5024459;28;19917;-66
2021/06/20 03:27:01;;;;;;;;;;;26.60;57.10;;;;;;5034999;28;19917;-68
2021/06/20 03:29:27;;;;;;;;;;;26.60;57.10;;;;;;5034481;28;19917;-67
2021/06/20 03:31:52;;;;;;;;;;;26.60;57.10;;;;;;5035503;28;19924;-68
2021/06/20 03:34:18;;;;;;;;;;;26.60;57.00;;;;;;5031233;28;19956;-67
2021/06/20 03:36:43;;;;;;;;;;;26.50;57.00;;;;;;5009238;28;19925;-66
2021/06/20 03:39:09;;;;;;;;;;;26.60;56.90;;;;;;5030240;28;20532;-68
2021/06/20 03:41:35;;;;;;;;;;;26.60;57.10;;;;;;5033796;28;19953;-67
2021/06/20 03:44:00;;;;;;;;;;;26.50;57.00;;;;;;5028012;28;19925;-67
2021/06/20 03:46:26;;;;;;;;;;;26.50;56.90;;;;;;5030418;28;19927;-68
2021/06/20 03:48:51;;;;;;;;;;;26.50;56.90;;;;;;5026854;28;19924;-68
2021/06/20 03:51:16;;;;;;;;;;;26.50;56.90;;;;;;5034323;28;20272;-67
2021/06/20 03:53:44;;;;;;;;;;;26.50;56.90;;;;;;5034095;28;19964;-67
2021/06/20 03:56:09;;;;;;;;;;;26.50;56.80;;;;;;5034731;28;19933;-67
2021/06/20 03:58:35;;;;;;;;;;;26.50;56.80;;;;;;5024964;28;19977;-67
2021/06/20 04:01:00;;;;;;;;;;;26.60;56.90;;;;;;5032545;28;20680;-67
2021/06/20 04:03:25;;;;;;;;;;;26.60;56.80;;;;;;5027957;28;20265;-68
2021/06/20 04:05:51;;;;;;;;;;;26.60;56.90;;;;;;5033635;28;19944;-67
2021/06/20 04:08:16;;;;;;;;;;;26.60;56.40;;;;;;5029916;28;20016;-67
2021/06/20 04:10:42;;;;;;;;;;;26.70;56.50;;;;;;5029570;28;19924;-67
2021/06/20 04:13:07;;;;;;;;;;;26.70;56.50;;;;;;5031291;28;20347;-67
2021/06/20 04:15:33;;;;;;;;;;;26.70;56.20;;;;;;5026073;28;19929;-67
2021/06/20 04:17:58;;;;;;;;;;;26.70;56.30;;;;;;5031405;28;20012;-67
2021/06/20 04:20:23;;;;;;;;;;;26.80;56.30;;;;;;5026464;28;19918;-67
2021/06/20 04:22:49;;;;;;;;;;;26.80;56.50;;;;;;5036070;28;20310;-67
2021/06/20 04:25:15;;;;;;;;;;;26.80;56.70;;;;;;5033472;28;19952;-67
2021/06/20 04:27:42;;;;;;;;;;;26.80;56.80;;;;;;5038964;28;20347;-67
2021/06/20 04:30:08;;;;;;;;;;;26.70;56.90;;;;;;5037160;28;19923;-67
2021/06/20 04:32:33;;;;;;;;;;;26.70;56.90;;;;;;5032396;28;19917;-68
2021/06/20 04:34:58;;;;;;;;;;;26.80;56.90;;;;;;5030151;28;19944;-68
2021/06/20 04:37:24;;;;;;;;;;;26.80;56.90;;;;;;5027386;28;19925;-67
2021/06/20 04:39:50;;;;;;;;;;;26.70;57.00;;;;;;5031957;28;20331;-67
2021/06/20 04:42:17;;;;;;;;;;;26.80;56.90;;;;;;5035026;28;19928;-67
2021/06/20 04:44:43;;;;;;;;;;;26.70;56.80;;;;;;5036425;28;20494;-67
2021/06/20 04:47:08;;;;;;;;;;;26.80;56.60;;;;;;5031641;28;20295;-67
2021/06/20 04:49:34;;;;;;;;;;;26.80;56.70;;;;;;5027062;28;19971;-67
2021/06/20 04:51:59;;;;;;;;;;;26.80;56.60;;;;;;5034582;28;19921;-68
2021/06/20 04:54:25;;;;;;;;;;;26.80;56.70;;;;;;5027779;28;19924;-67
2021/06/20 04:56:50;;;;;;;;;;;26.80;56.60;;;;;;5036145;28;19921;-67
2021/06/20 04:59:16;;;;;;;;;;;26.90;56.30;;;;;;5027323;28;19925;-67
2021/06/20 05:01:41;;;;;;;;;;;26.80;56.30;;;;;;5034426;28;19921;-67
2021/06/20 05:04:07;;;;;;;;;;;26.90;56.40;;;;;;5035094;28;19917;-67
2021/06/20 05:06:32;;;;;;;;;;;26.90;56.40;;;;;;5031667;28;19948;-68
2021/06/20 05:08:58;;;;;;;;;;;26.90;56.10;;;;;;5035158;28;19917;-67
2021/06/20 05:11:23;;;;;;;;;;;26.90;56.10;;;;;;5031945;28;19917;-67
2021/06/20 05:13:49;;;;;;;;;;;26.90;55.90;;;;;;5028450;28;19929;-66
2021/06/20 05:16:14;;;;;;;;;;;26.90;55.90;;;;;;5032952;28;19921;-68
2021/06/20 05:18:40;;;;;;;;;;;27.00;55.70;;;;;;5037906;28;20302;-66
2021/06/20 05:21:05;;;;;;;;;;;27.00;55.30;;;;;;5031925;28;19924;-67
2021/06/20 05:23:31;;;;;;;;;;;27.00;55.50;;;;;;5036930;28;20335;-67
2021/06/20 05:25:56;;;;;;;;;;;27.00;56.20;;;;;;5032342;28;19921;-66
2021/06/20 05:28:22;;;;;;;;;;;27.00;56.50;;;;;;5032639;28;20004;-67
2021/06/20 05:30:47;;;;;;;;;;;27.00;56.80;;;;;;5035210;28;19924;-67
2021/06/20 05:33:16;;;;;;;;;;;26.90;56.60;;;;;;5026715;28;20287;-67
2021/06/20 05:35:41;;;;;;;;;;;26.90;56.40;;;;;;5032365;28;19995;-67
2021/06/20 05:38:07;;;;;;;;;;;27.00;56.20;;;;;;5033371;28;20391;-67
2021/06/20 05:40:33;;;;;;;;;;;27.00;55.60;;;;;;5030573;28;19917;-67
2021/06/20 05:42:59;;;;;;;;;;;27.00;55.10;;;;;;5052865;22;20396;-63
2021/06/20 05:45:24;;;;;;;;;;;27.10;55.20;;;;;;5037563;28;19921;-61
2021/06/20 05:47:50;;;;;;;;;;;27.10;55.10;;;;;;5040892;28;20336;-61
2021/06/20 05:50:15;;;;;;;;;;;27.00;55.70;;;;;;5042259;28;19917;-63
2021/06/20 05:52:41;;;;;;;;;;;27.10;55.80;;;;;;5045727;28;19990;-63
2021/06/20 05:55:06;;;;;;;;;;;27.10;55.80;;;;;;5044519;28;19921;-64
2021/06/20 05:57:32;;;;;;;;;;;27.00;56.20;;;;;;5041694;28;19924;-63
2021/06/20 05:59:57;;;;;;;;;;;27.00;56.70;;;;;;5045384;28;19944;-62
2021/06/20 06:02:23;;;;;;;;;;;27.00;55.90;;;;;;5057425;28;19920;-63
2021/06/20 06:04:48;;;;;;;;;;;27.00;55.80;;;;;;5045374;28;19916;-62
2021/06/20 06:07:14;;;;;;;;;;;27.10;56.00;;;;;;5042420;28;20161;-63
2021/06/20 06:09:39;;;;;;;;;;;27.00;56.20;;;;;;5044650;28;19917;-62
2021/06/20 06:12:05;;;;;;;;;;;27.00;56.30;;;;;;5045396;28;19917;-63
2021/06/20 06:14:31;;;;;;;;;;;27.10;56.50;;;;;;5048489;28;19921;-62
2021/06/20 06:16:56;;;;;;;;;;;27.10;56.30;;;;;;5044445;28;19935;-63
2021/06/20 06:19:21;;;;;;;;;;;27.10;56.10;;;;;;5043831;28;19917;-63
2021/06/20 06:21:47;;;;;;;;;;;27.10;56.10;;;;;;5042611;28;19921;-63
2021/06/20 06:24:12;;;;;;;;;;;27.10;56.10;;;;;;5045049;28;19921;-63
2021/06/20 06:26:38;;;;;;;;;;;27.20;56.10;;;;;;5044513;28;19945;-63
2021/06/20 06:29:04;;;;;;;;;;;27.10;55.90;;;;;;5045332;28;19921;-63
2021/06/20 06:31:30;;;;;;;;;;;27.20;55.70;;;;;;5044667;28;20003;-63
2021/06/20 06:33:55;;;;;;;;;;;27.20;55.40;;;;;;5049657;28;20012;-63
2021/06/20 06:36:21;;;;;;;;;;;27.20;55.40;;;;;;5047012;28;19921;-63
2021/06/20 06:38:46;;;;;;;;;;;27.20;55.50;;;;;;5051858;28;19954;-62
2021/06/20 06:41:12;;;;;;;;;;;27.20;55.50;;;;;;5047660;28;19917;-64
2021/06/20 06:43:38;;;;;;;;;;;27.20;55.80;;;;;;5047982;28;20002;-62
2021/06/20 06:46:03;;;;;;;;;;;27.20;55.90;;;;;;5036149;28;20646;-61
2021/06/20 06:48:29;;;;;;;;;;;27.20;55.90;;;;;;5044103;28;19924;-61
2021/06/20 06:50:54;;;;;;;;;;;27.20;56.00;;;;;;5053430;28;19920;-61
2021/06/20 06:53:20;;;;;;;;;;;27.20;56.00;;;;;;5044773;28;19943;-62
2021/06/20 06:55:45;;;;;;;;;;;27.30;56.10;;;;;;5044284;28;20000;-61
2021/06/20 06:58:10;;;;;;;;;;;27.30;56.10;;;;;;5041020;28;19923;-60
2021/06/20 07:00:36;;;;;;;;;;;27.20;56.00;;;;;;5043579;28;20093;-61
2021/06/20 07:03:01;;;;;;;;;;;27.30;56.10;;;;;;5046111;28;19924;-61
2021/06/20 07:05:27;;;;;;;;;;;27.30;56.20;;;;;;5045563;28;19986;-61
2021/06/20 07:07:53;;;;;;;;;;;27.30;56.20;;;;;;5059041;28;19982;-61
2021/06/20 07:10:18;;;;;;;;;;;27.30;56.20;;;;;;5046102;28;19913;-60
2021/06/20 07:12:44;;;;;;;;;;;27.30;56.20;;;;;;5063383;28;19912;-62
2021/06/20 07:15:09;;;;;;;;;;;27.30;56.40;;;;;;5057454;28;19939;-62
2021/06/20 07:17:35;;;;;;;;;;;27.30;56.50;;;;;;5063028;28;20312;-62
2021/06/20 07:20:01;;;;;;;;;;;27.30;56.50;;;;;;5058168;28;19921;-61
2021/06/20 07:22:26;;;;;;;;;;;27.30;56.50;;;;;;5050307;28;20267;-61
2021/06/20 07:24:52;;;;;;;;;;;27.30;56.10;;;;;;5058722;28;19913;-61
2021/06/20 07:27:17;;;;;;;;;;;27.30;55.70;;;;;;5063622;28;20541;-62
2021/06/20 07:29:43;;;;;;;;;;;27.30;55.60;;;;;;5048548;28;19921;-61
2021/06/20 07:32:08;;;;;;;;;;;27.30;55.40;;;;;;5045646;28;19949;-62
2021/06/20 07:34:34;;;;;;;;;;;27.30;55.50;;;;;;5059561;28;20008;-61
2021/06/20 07:36:59;;;;;;;;;;;27.30;55.50;;;;;;5056297;28;19972;-61
2021/06/20 07:39:25;;;;;;;;;;;27.30;55.70;;;;;;5055271;28;19924;-61
2021/06/20 07:41:50;;;;;;;;;;;27.30;55.70;;;;;;5058242;28;20401;-60
2021/06/20 07:44:16;;;;;;;;;;;27.30;55.80;;;;;;5040703;28;19925;-61
2021/06/20 07:46:41;;;;;;;;;;;27.30;56.00;;;;;;5057747;28;19913;-61
2021/06/20 07:49:06;;;;;;;;;;;27.30;55.90;;;;;;5045242;28;20348;-60
2021/06/20 07:51:32;;;;;;;;;;;27.30;56.10;;;;;;5042366;28;20627;-61
2021/06/20 07:53:57;;;;;;;;;;;27.30;56.10;;;;;;5042847;28;19919;-61
2021/06/20 07:56:23;;;;;;;;;;;27.30;56.00;;;;;;5046494;28;19916;-61
2021/06/20 07:58:48;;;;;;;;;;;27.40;56.20;;;;;;5040640;28;20025;-61
2021/06/20 08:01:14;;;;;;;;;;;27.30;56.10;;;;;;5052163;28;19912;-61
2021/06/20 08:03:39;;;;;;;;;;;27.30;56.10;;;;;;5048674;28;19970;-61
2021/06/20 08:06:05;;;;;;;;;;;27.40;56.20;;;;;;5062306;28;19916;-61
2021/06/20 08:08:30;;;;;;;;;;;27.40;56.10;;;;;;5056934;28;19917;-61
2021/06/20 08:10:57;;;;;;;;;;;27.40;56.20;;;;;;5050935;28;20474;-62
2021/06/20 08:13:22;;;;;;;;;;;27.40;56.30;;;;;;5063231;28;19962;-61
2021/06/20 08:15:48;;;;;;;;;;;27.30;56.20;;;;;;5047704;28;19925;-61
2021/06/20 08:18:13;;;;;;;;;;;27.30;55.90;;;;;;5041839;28;19991;-61
2021/06/20 08:20:39;;;;;;;;;;;27.40;55.60;;;;;;5042210;28;20259;-62
2021/06/20 08:23:04;;;;;;;;;;;27.40;55.70;;;;;;5051096;28;19917;-62
2021/06/20 08:25:30;;;;;;;;;;;27.40;55.60;;;;;;5041208;28;20355;-62
2021/06/20 08:27:55;;;;;;;;;;;27.40;55.70;;;;;;5045900;28;19917;-62
2021/06/20 08:30:21;;;;;;;;;;;27.40;55.70;;;;;;5031471;28;19917;-61
2021/06/20 08:32:46;;;;;;;;;;;27.40;55.80;;;;;;5044822;28;20003;-62
2021/06/20 08:35:13;;;;;;;;;;;27.40;55.90;;;;;;5049998;28;20691;-60
2021/06/20 08:37:38;;;;;;;;;;;27.40;56.00;;;;;;5040809;28;19925;-63
2021/06/20 08:40:04;;;;;;;;;;;27.40;56.00;;;;;;5042665;28;19974;-61
2021/06/20 08:42:29;;;;;;;;;;;27.40;56.10;;;;;;5032597;28;19932;-61
2021/06/20 08:44:55;;;;;;;;;;;27.40;56.10;;;;;;5038786;28;19924;-61
2021/06/20 08:47:20;;;;;;;;;;;27.40;56.10;;;;;;5041764;28;19924;-61
2021/06/20 08:49:46;;;;;;;;;;;27.40;56.20;;;;;;5036143;28;20492;-61
2021/06/20 08:52:12;;;;;;;;;;;27.40;56.50;;;;;;5045051;28;19924;-62
2021/06/20 08:54:37;;;;;;;;;;;27.40;56.50;;;;;;5045066;28;19913;-62
2021/06/20 08:57:03;;;;;;;;;;;27.40;56.40;;;;;;5049405;28;19970;-61
2021/06/20 08:59:29;;;;;;;;;;;27.40;56.40;;;;;;5049033;28;19912;-61
2021/06/20 09:01:55;;;;;;;;;;;27.40;56.60;;;;;;5044326;28;20329;-60
2021/06/20 09:04:28;;;;;;;;;;;27.40;56.50;;;;;;5061531;28;19912;-61
2021/06/20 09:06:54;;;;;;;;;;;27.40;56.60;;;;;;5034992;28;20021;-60
2021/06/20 09:09:26;;;;;;;;;;;27.40;56.70;;;;;;5051170;28;20614;-60
2021/06/20 09:11:51;;;;;;;;;;;27.40;56.70;;;;;;5054104;28;19913;-62
2021/06/20 09:14:17;;;;;;;;;;;27.40;56.80;;;;;;5049377;28;19923;-62
2021/06/20 09:17:00;;;;;;;;;;;27.50;57.00;;;;;;5045051;28;19916;-60
2021/06/20 09:19:29;;;;;;;;;;;27.50;56.90;;;;;;5056883;28;20330;-61
2021/06/20 09:21:54;;;;;;;;;;;27.40;57.00;;;;;;5066156;28;19919;-61
2021/06/20 09:24:20;;;;;;;;;;;27.40;57.10;;;;;;5064455;28;20426;-61
2021/06/20 09:26:50;;;;;;;;;;;27.40;57.30;;;;;;5047330;28;19921;-61
2021/06/20 09:29:15;;;;;;;;;;;27.40;57.10;;;;;;5063955;28;20296;-61
2021/06/20 09:31:41;;;;;;;;;;;27.50;57.40;;;;;;5054406;28;19913;-61
2021/06/20 09:34:07;;;;;;;;;;;27.40;57.60;;;;;;5052210;28;19913;-61
2021/06/20 09:36:32;;;;;;;;;;;27.40;57.80;;;;;;5057014;28;20370;-61
2021/06/20 09:38:58;;;;;;;;;;;27.40;57.90;;;;;;5049158;28;19921;-62
2021/06/20 09:41:23;;;;;;;;;;;27.40;58.50;;;;;;5063869;28;19912;-62
2021/06/20 09:43:55;;;;;;;;;;;27.40;58.20;;;;;;5061484;28;19921;-62
2021/06/20 09:46:20;;;;;;;;;;;27.50;59.00;;;;;;5062613;28;19943;-62
2021/06/20 09:48:46;;;;;;;;;;;27.40;58.70;;;;;;5053708;28;19951;-62
2021/06/20 09:51:11;;;;;;;;;;;27.50;58.80;;;;;;5058411;28;19913;-62
2021/06/20 09:53:40;;;;;;;;;;;27.50;58.80;;;;;;5044506;28;20349;-62
2021/06/20 09:56:13;;;;;;;;;;;27.40;59.10;;;;;;5044534;28;24338;-62
2021/06/20 09:58:42;;;;;;;;;;;27.40;58.90;;;;;;5052053;28;19917;-67
2021/06/20 10:01:09;;;;;;;;;;;27.40;58.80;;;;;;5044515;28;19925;-62
2021/06/20 10:03:35;;;;;;;;;;;27.40;58.60;;;;;;5064331;28;19913;-61
2021/06/20 10:06:00;;;;;;;;;;;27.50;58.50;;;;;;5058386;28;20432;-61
2021/06/20 10:08:26;;;;;;;;;;;27.40;58.40;;;;;;5060041;28;19912;-60
2021/06/20 10:10:51;;;;;;;;;;;27.50;58.50;;;;;;5057744;28;19917;-61
2021/06/20 10:13:17;;;;;;;;;;;27.40;59.10;;;;;;5043474;28;19913;-61
2021/06/20 10:15:42;;;;;;;;;;;27.50;59.30;;;;;;5044742;28;19913;-61
2021/06/20 10:18:08;;;;;;;;;;;27.50;59.40;;;;;;5056175;28;19920;-60
2021/06/20 10:20:34;;;;;;;;;;;27.50;59.30;;;;;;5045647;28;20402;-61
2021/06/20 10:23:00;;;;;;;;;;;27.50;59.10;;;;;;5046211;28;19913;-60
2021/06/20 10:25:29;;;;;;;;;;;27.50;58.70;;;;;;5063852;28;19917;-61
2021/06/20 10:28:08;;;;;;;;;;;27.50;56.80;;;;;;5063685;28;19974;-61
2021/06/20 10:30:34;;;;;;;;;;;27.50;56.70;;;;;;5047694;28;20552;-61
2021/06/20 10:33:11;;;;;;;;;;;27.50;56.20;;;;;;5053022;28;19952;-61
2021/06/20 10:35:37;;;;;;;;;;;27.50;56.10;;;;;;5056490;28;19917;-61
2021/06/20 10:38:02;;;;;;;;;;;27.50;56.00;;;;;;5064504;28;19912;-60
2021/06/20 10:40:32;;;;;;;;;;;27.50;55.90;;;;;;5058348;28;19913;-62
2021/06/20 10:42:58;;;;;;;;;;;27.50;56.20;;;;;;5049377;28;20012;-61
2021/06/20 10:45:35;;;;;;;;;;;27.50;56.30;;;;;;5066041;28;20400;-62
2021/06/20 10:48:21;;;;;;;;;;;27.50;56.60;;;;;;5053426;28;19939;-61
2021/06/20 10:50:47;;;;;;;;;;;27.50;56.60;;;;;;5045856;28;20394;-61
2021/06/20 10:53:13;;;;;;;;;;;27.50;56.80;;;;;;5049569;28;19916;-62
2021/06/20 10:55:45;;;;;;;;;;;27.50;56.90;;;;;;5047689;28;19978;-61
2021/06/20 10:58:30;;;;;;;;;;;27.50;57.00;;;;;;5043508;28;20268;-62
2021/06/20 11:01:24;;;;;;;;;;;27.50;57.00;;;;;;5039736;28;20009;-61
2021/06/20 11:03:53;;;;;;;;;;;27.50;57.30;;;;;;5027359;28;19917;-61
2021/06/20 11:06:19;;;;;;;;;;;27.50;57.40;;;;;;5044443;28;19928;-60
2021/06/20 11:08:53;;;;;;;;;;;27.50;57.30;;;;;;5042688;28;19923;-61
2021/06/20 11:11:21;;;;;;;;;;;27.50;57.20;;;;;;5044594;28;19913;-61
2021/06/20 11:13:47;;;;;;;;;;;27.50;57.10;;;;;;5048061;28;20375;-61
2021/06/20 11:16:14;;;;;;;;;;;27.50;57.10;;;;;;5064971;28;19916;-61
2021/06/20 11:18:40;;;;;;;;;;;27.50;57.20;;;;;;5050325;28;19913;-64
2021/06/20 11:21:05;;;;;;;;;;;27.50;57.20;;;;;;5055459;28;19923;-61
2021/06/20 11:23:31;;;;;;;;;;;27.50;57.20;;;;;;5046963;28;19913;-61
2021/06/20 11:25:57;;;;;;;;;;;27.50;57.20;;;;;;5043775;28;19917;-60
2021/06/20 11:28:23;;;;;;;;;;;27.50;57.00;;;;;;5039047;28;20293;-61
2021/06/20 11:30:49;;;;;;;;;;;27.50;57.30;;;;;;5045720;28;19959;-61
2021/06/20 11:33:25;;;;;;;;;;;27.60;57.10;;;;;;5053648;28;19980;-61
2021/06/20 11:35:51;;;;;;;;;;;27.50;57.00;;;;;;5059941;28;20580;-61
2021/06/20 11:38:26;;;;;;;;;;;27.60;57.20;;;;;;5044471;28;19913;-61
2021/06/20 11:40:53;;;;;;;;;;;27.60;56.90;;;;;;5059870;28;20293;-61
2021/06/20 11:43:18;;;;;;;;;;;27.60;57.50;;;;;;5044384;28;19921;-60
2021/06/20 11:45:43;;;;;;;;;;;27.60;57.60;;;;;;5027085;22;19980;-60
2021/06/20 11:48:09;;;;;;;;;;;27.60;57.10;;;;;;5004470;28;20004;-63
2021/06/20 11:50:36;;;;;;;;;;;27.60;57.10;;;;;;5023052;28;19913;-59
2021/06/20 11:53:03;;;;;;;;;;;27.60;57.70;;;;;;5019893;28;19960;-62
2021/06/20 11:55:29;;;;;;;;;;;27.60;58.10;;;;;;5015590;28;20432;-59
2021/06/20 11:57:55;;;;;;;;;;;27.60;57.40;;;;;;5039062;28;19956;-60
2021/06/20 12:00:21;;;;;;;;;;;27.70;57.60;;;;;;5038919;28;19951;-61
2021/06/20 12:02:56;;;;;;;;;;;27.70;57.50;;;;;;5017446;28;19944;-61
2021/06/20 12:05:22;;;;;;;;;;;27.70;57.90;;;;;;5038667;28;20456;-60
2021/06/20 12:07:49;;;;;;;;;;;27.70;57.50;;;;;;5036028;28;19917;-63
2021/06/20 12:10:15;;;;;;;;;;;27.70;57.70;;;;;;5033118;28;19979;-62
2021/06/20 12:12:41;;;;;;;;;;;27.70;57.90;;;;;;5014624;28;19918;-64
2021/06/20 12:15:06;;;;;;;;;;;27.70;57.90;;;;;;5010071;28;20391;-63
2021/06/20 12:17:32;;;;;;;;;;;27.70;57.80;;;;;;5023588;28;19956;-63
2021/06/20 12:19:57;;;;;;;;;;;27.70;57.80;;;;;;5031016;28;19936;-63
2021/06/20 12:22:23;;;;;;;;;;;27.70;58.00;;;;;;5023924;28;20400;-61
2021/06/20 12:24:56;;;;;;;;;;;27.70;57.90;;;;;;5021734;28;20008;-62
2021/06/20 12:27:47;;;;;;;;;;;27.70;57.90;;;;;;5023236;28;20481;-62
2021/06/20 12:30:16;;;;;;;;;;;27.70;57.80;;;;;;5022081;28;19913;-63
2021/06/20 12:32:41;;;;;;;;;;;27.70;58.30;;;;;;5023274;28;19920;-63
2021/06/20 12:35:07;;;;;;;;;;;27.70;58.30;;;;;;5022763;28;19913;-63
2021/06/20 12:37:42;;;;;;;;;;;27.70;58.30;;;;;;5012857;28;20291;-59
2021/06/20 12:40:12;;;;;;;;;;;27.70;58.50;;;;;;5030606;28;20537;-61
2021/06/20 12:42:43;;;;;;;;;;;27.70;58.50;;;;;;5039645;28;19964;-62
2021/06/20 12:45:17;;;;;;;;;;;27.80;59.10;;;;;;5041799;28;19922;-62
2021/06/20 12:47:42;;;;;;;;;;;27.80;58.60;;;;;;5026992;28;19913;-63
2021/06/20 12:50:08;;;;;;;;;;;27.80;58.50;;;;;;5027509;28;19920;-63
2021/06/20 12:52:37;;;;;;;;;;;27.70;58.30;;;;;;5022833;28;19918;-62
2021/06/20 12:55:15;;;;;;;;;;;27.70;58.20;;;;;;5013560;28;19913;-62
2021/06/20 12:57:48;;;;;;;;;;;27.80;58.40;;;;;;5038323;28;19971;-61
2021/06/20 13:00:13;;;;;;;;;;;27.80;58.40;;;;;;5022231;28;19921;-61
2021/06/20 13:02:40;;;;;;;;;;;27.80;58.40;;;;;;5039273;28;19913;-63
2021/06/20 13:05:05;;;;;;;;;;;27.80;58.40;;;;;;5037933;28;19913;-62
2021/06/20 13:07:35;;;;;;;;;;;27.80;58.40;;;;;;5020187;28;20481;-62
2021/06/20 13:10:01;;;;;;;;;;;27.80;58.60;;;;;;5004937;28;19925;-62
2021/06/20 13:12:26;;;;;;;;;;;27.80;58.40;;;;;;5038369;28;19913;-62
2021/06/20 13:14:52;;;;;;;;;;;27.80;58.50;;;;;;5012950;28;20377;-62
2021/06/20 13:17:17;;;;;;;;;;;27.80;58.30;;;;;;5016431;28;19929;-61
2021/06/20 13:19:43;;;;;;;;;;;27.80;58.30;;;;;;5008109;28;20332;-62
2021/06/20 13:22:08;;;;;;;;;;;27.80;58.40;;;;;;5011439;28;19928;-62
2021/06/20 13:24:34;;;;;;;;;;;27.80;58.50;;;;;;5022866;28;19914;-62
2021/06/20 13:26:59;;;;;;;;;;;27.80;58.70;;;;;;5019336;28;19913;-62
2021/06/20 13:29:25;;;;;;;;;;;27.80;58.20;;;;;;5022686;28;19943;-60
2021/06/20 13:31:50;;;;;;;;;;;27.80;58.40;;;;;;5022311;28;20445;-61
2021/06/20 13:34:16;;;;;;;;;;;27.80;58.40;;;;;;5022682;28;19917;-61
2021/06/20 13:36:41;;;;;;;;;;;27.80;58.30;;;;;;5023176;28;19921;-62
2021/06/20 13:39:07;;;;;;;;;;;27.80;58.20;;;;;;5035485;28;19974;-61
2021/06/20 13:41:32;;;;;;;;;;;27.80;58.30;;;;;;5021361;28;19945;-60
2021/06/20 13:43:59;;;;;;;;;;;27.80;58.20;;;;;;5037407;28;19913;-61
2021/06/20 13:46:25;;;;;;;;;;;27.80;58.30;;;;;;5023197;28;20009;-61
2021/06/20 13:48:50;;;;;;;;;;;27.80;58.10;;;;;;5022619;28;19921;-61
2021/06/20 13:51:16;;;;;;;;;;;27.90;58.20;;;;;;5021931;28;19924;-59
2021/06/20 13:53:41;;;;;;;;;;;27.80;58.20;;;;;;5035166;28;20376;-61
2021/06/20 13:56:07;;;;;;;;;;;27.80;58.30;;;;;;5021296;28;20012;-61
2021/06/20 13:58:32;;;;;;;;;;;27.90;58.20;;;;;;5021783;28;20320;-58
2021/06/20 14:00:58;;;;;;;;;;;27.90;58.20;;;;;;5037180;28;19944;-61
2021/06/20 14:03:23;;;;;;;;;;;27.80;58.10;;;;;;5021493;28;20655;-61
2021/06/20 14:05:48;;;;;;;;;;;27.90;58.20;;;;;;5021201;28;19917;-61
2021/06/20 14:08:14;;;;;;;;;;;27.90;58.20;;;;;;5037355;28;19917;-61
2021/06/20 14:10:39;;;;;;;;;;;27.80;58.10;;;;;;5021938;28;20256;-60